sensor_id;sensor_type;location;lat;lon;timestamp;P1;durP1;ratioP1;P2;durP2;ratioP2
33505;SDS011;19843;51.040;13.782;2022-08-23T00:00:17;1.90;;;1.90;;
33505;SDS011;19843;51.040;13.782;2022-08-23T00:02:44;2.47;;;2.38;;
33505;SDS011;19843;51.040;13.782;2022-08-23T00:05:13;2.75;;;2.65;;
33505;SDS011;19843;51.040;13.782;2022-08-23T00:07:42;3.17;;;3.08;;
33505;SDS011;19843;51.040;13.782;2022-08-23T00:10:12;5.10;;;4.90;;
33505;SDS011;19843;51.040;13.782;2022-08-23T00:12:41;6.50;;;6.25;;
33505;SDS011;19843;51.040;13.782;2022-08-23T00:15:11;8.07;;;7.78;;
33505;SDS011;19843;51.040;13.782;2022-08-23T00:17:40;7.25;;;7.05;;
33505;SDS011;19843;51.040;13.782;2022-08-23T00:20:10;7.70;;;7.40;;
33505;SDS011;19843;51.040;13.782;2022-08-23T00:22:41;9.13;;;8.73;;
33505;SDS011;19843;51.040;13.782;2022-08-23T00:25:09;8.32;;;8.02;;
33505;SDS011;19843;51.040;13.782;2022-08-23T00:27:39;7.60;;;7.30;;
33505;SDS011;19843;51.040;13.782;2022-08-23T00:30:07;6.82;;;6.63;;
33505;SDS011;19843;51.040;13.782;2022-08-23T00:32:37;7.25;;;7.00;;
33505;SDS011;19843;51.040;13.782;2022-08-23T00:35:07;6.90;;;6.60;;
33505;SDS011;19843;51.040;13.782;2022-08-23T00:37:36;5.60;;;5.40;;
33505;SDS011;19843;51.040;13.782;2022-08-23T00:40:07;4.28;;;4.07;;
33505;SDS011;19843;51.040;13.782;2022-08-23T00:42:37;3.25;;;3.15;;
33505;SDS011;19843;51.040;13.782;2022-08-23T00:45:32;2.17;;;2.08;;
33505;SDS011;19843;51.040;13.782;2022-08-23T00:48:23;1.65;;;1.58;;
33505;SDS011;19843;51.040;13.782;2022-08-23T00:50:52;2.17;;;2.08;;
33505;SDS011;19843;51.040;13.782;2022-08-23T00:53:27;1.98;;;1.88;;
33505;SDS011;19843;51.040;13.782;2022-08-23T00:55:59;1.92;;;1.83;;
33505;SDS011;19843;51.040;13.782;2022-08-23T00:58:29;1.65;;;1.65;;
33505;SDS011;19843;51.040;13.782;2022-08-23T01:00:58;1.75;;;1.67;;
33505;SDS011;19843;51.040;13.782;2022-08-23T01:03:29;1.77;;;1.67;;
33505;SDS011;19843;51.040;13.782;2022-08-23T01:06:05;1.75;;;1.75;;
33505;SDS011;19843;51.040;13.782;2022-08-23T01:08:37;2.05;;;1.95;;
33505;SDS011;19843;51.040;13.782;2022-08-23T01:11:11;2.40;;;2.30;;
33505;SDS011;19843;51.040;13.782;2022-08-23T01:13:44;2.50;;;2.40;;
33505;SDS011;19843;51.040;13.782;2022-08-23T01:18:47;1.90;;;1.80;;
33505;SDS011;19843;51.040;13.782;2022-08-23T01:21:18;2.38;;;2.28;;
33505;SDS011;19843;51.040;13.782;2022-08-23T01:23:53;2.33;;;2.22;;
33505;SDS011;19843;51.040;13.782;2022-08-23T01:26:23;2.25;;;2.15;;
33505;SDS011;19843;51.040;13.782;2022-08-23T01:28:52;1.92;;;1.83;;
33505;SDS011;19843;51.040;13.782;2022-08-23T01:31:21;1.67;;;1.67;;
33505;SDS011;19843;51.040;13.782;2022-08-23T01:33:53;1.70;;;1.60;;
33505;SDS011;19843;51.040;13.782;2022-08-23T01:36:24;1.95;;;1.83;;
33505;SDS011;19843;51.040;13.782;2022-08-23T01:38:53;2.00;;;2.00;;
33505;SDS011;19843;51.040;13.782;2022-08-23T01:41:21;2.05;;;2.05;;
33505;SDS011;19843;51.040;13.782;2022-08-23T01:43:48;2.40;;;2.30;;
33505;SDS011;19843;51.040;13.782;2022-08-23T01:46:18;2.28;;;2.17;;
33505;SDS011;19843;51.040;13.782;2022-08-23T01:48:48;1.90;;;1.80;;
33505;SDS011;19843;51.040;13.782;2022-08-23T01:51:17;2.00;;;1.90;;
33505;SDS011;19843;51.040;13.782;2022-08-23T01:53:46;1.92;;;1.83;;
33505;SDS011;19843;51.040;13.782;2022-08-23T01:56:15;1.45;;;1.45;;
33505;SDS011;19843;51.040;13.782;2022-08-23T01:58:52;1.73;;;1.63;;
33505;SDS011;19843;51.040;13.782;2022-08-23T02:01:20;1.60;;;1.60;;
33505;SDS011;19843;51.040;13.782;2022-08-23T02:03:48;1.63;;;1.63;;
33505;SDS011;19843;51.040;13.782;2022-08-23T02:06:29;1.25;;;1.25;;
33505;SDS011;19843;51.040;13.782;2022-08-23T02:08:57;1.30;;;1.30;;
33505;SDS011;19843;51.040;13.782;2022-08-23T02:11:31;1.40;;;1.40;;
33505;SDS011;19843;51.040;13.782;2022-08-23T02:14:01;1.10;;;1.10;;
33505;SDS011;19843;51.040;13.782;2022-08-23T02:16:33;1.17;;;1.17;;
33505;SDS011;19843;51.040;13.782;2022-08-23T02:19:04;1.25;;;1.25;;
33505;SDS011;19843;51.040;13.782;2022-08-23T02:21:33;1.70;;;1.60;;
33505;SDS011;19843;51.040;13.782;2022-08-23T02:24:02;1.65;;;1.65;;
33505;SDS011;19843;51.040;13.782;2022-08-23T02:26:34;1.92;;;1.83;;
33505;SDS011;19843;51.040;13.782;2022-08-23T02:29:03;2.28;;;2.17;;
33505;SDS011;19843;51.040;13.782;2022-08-23T02:31:30;1.70;;;1.70;;
33505;SDS011;19843;51.040;13.782;2022-08-23T02:33:58;2.38;;;2.28;;
33505;SDS011;19843;51.040;13.782;2022-08-23T02:36:44;2.90;;;2.80;;
33505;SDS011;19843;51.040;13.782;2022-08-23T02:39:12;3.45;;;3.35;;
33505;SDS011;19843;51.040;13.782;2022-08-23T02:41:42;3.75;;;3.65;;
33505;SDS011;19843;51.040;13.782;2022-08-23T02:44:11;3.38;;;3.28;;
33505;SDS011;19843;51.040;13.782;2022-08-23T02:46:39;3.67;;;3.53;;
33505;SDS011;19843;51.040;13.782;2022-08-23T02:49:07;5.03;;;4.85;;
33505;SDS011;19843;51.040;13.782;2022-08-23T02:51:35;6.20;;;5.90;;
33505;SDS011;19843;51.040;13.782;2022-08-23T02:54:03;6.45;;;6.25;;
33505;SDS011;19843;51.040;13.782;2022-08-23T02:56:31;5.95;;;5.75;;
33505;SDS011;19843;51.040;13.782;2022-08-23T02:59:01;4.95;;;4.75;;
33505;SDS011;19843;51.040;13.782;2022-08-23T03:01:29;3.53;;;3.42;;
33505;SDS011;19843;51.040;13.782;2022-08-23T03:03:59;2.28;;;2.17;;
33505;SDS011;19843;51.040;13.782;2022-08-23T03:06:27;2.05;;;1.95;;
33505;SDS011;19843;51.040;13.782;2022-08-23T03:08:54;2.60;;;2.50;;
33505;SDS011;19843;51.040;13.782;2022-08-23T03:11:22;3.15;;;3.05;;
33505;SDS011;19843;51.040;13.782;2022-08-23T03:13:52;4.15;;;4.03;;
33505;SDS011;19843;51.040;13.782;2022-08-23T03:16:23;4.65;;;4.53;;
33505;SDS011;19843;51.040;13.782;2022-08-23T03:18:51;5.10;;;4.90;;
33505;SDS011;19843;51.040;13.782;2022-08-23T03:21:19;4.88;;;4.68;;
33505;SDS011;19843;51.040;13.782;2022-08-23T03:23:47;3.28;;;3.17;;
33505;SDS011;19843;51.040;13.782;2022-08-23T03:26:15;2.60;;;2.50;;
33505;SDS011;19843;51.040;13.782;2022-08-23T03:28:43;2.13;;;2.03;;
33505;SDS011;19843;51.040;13.782;2022-08-23T03:31:11;1.80;;;1.80;;
33505;SDS011;19843;51.040;13.782;2022-08-23T03:33:41;2.10;;;2.00;;
33505;SDS011;19843;51.040;13.782;2022-08-23T03:36:09;2.35;;;2.25;;
33505;SDS011;19843;51.040;13.782;2022-08-23T03:38:38;2.53;;;2.42;;
33505;SDS011;19843;51.040;13.782;2022-08-23T03:41:07;2.35;;;2.25;;
33505;SDS011;19843;51.040;13.782;2022-08-23T03:43:35;2.40;;;2.30;;
33505;SDS011;19843;51.040;13.782;2022-08-23T03:46:04;2.90;;;2.80;;
33505;SDS011;19843;51.040;13.782;2022-08-23T03:48:33;3.20;;;3.10;;
33505;SDS011;19843;51.040;13.782;2022-08-23T03:51:02;3.63;;;3.53;;
33505;SDS011;19843;51.040;13.782;2022-08-23T03:53:29;2.78;;;2.67;;
33505;SDS011;19843;51.040;13.782;2022-08-23T03:55:57;2.92;;;2.83;;
33505;SDS011;19843;51.040;13.782;2022-08-23T03:58:24;2.38;;;2.28;;
33505;SDS011;19843;51.040;13.782;2022-08-23T04:00:54;2.63;;;2.53;;
33505;SDS011;19843;51.040;13.782;2022-08-23T04:03:22;3.08;;;2.88;;
33505;SDS011;19843;51.040;13.782;2022-08-23T04:05:50;3.28;;;3.17;;
33505;SDS011;19843;51.040;13.782;2022-08-23T04:08:20;3.10;;;3.00;;
33505;SDS011;19843;51.040;13.782;2022-08-23T04:10:59;2.20;;;2.10;;
33505;SDS011;19843;51.040;13.782;2022-08-23T04:13:26;2.83;;;2.65;;
33505;SDS011;19843;51.040;13.782;2022-08-23T04:15:54;2.90;;;2.80;;
33505;SDS011;19843;51.040;13.782;2022-08-23T04:18:23;2.50;;;2.40;;
33505;SDS011;19843;51.040;13.782;2022-08-23T04:20:50;2.45;;;2.35;;
33505;SDS011;19843;51.040;13.782;2022-08-23T04:23:18;1.83;;;1.83;;
33505;SDS011;19843;51.040;13.782;2022-08-23T04:25:47;1.90;;;1.80;;
33505;SDS011;19843;51.040;13.782;2022-08-23T04:28:14;1.70;;;1.60;;
33505;SDS011;19843;51.040;13.782;2022-08-23T04:30:42;1.60;;;1.60;;
33505;SDS011;19843;51.040;13.782;2022-08-23T04:33:12;1.80;;;1.70;;
33505;SDS011;19843;51.040;13.782;2022-08-23T04:38:13;1.80;;;1.70;;
33505;SDS011;19843;51.040;13.782;2022-08-23T04:40:51;1.80;;;1.70;;
33505;SDS011;19843;51.040;13.782;2022-08-23T04:43:37;1.98;;;1.85;;
33505;SDS011;19843;51.040;13.782;2022-08-23T04:46:04;2.35;;;2.00;;
33505;SDS011;19843;51.040;13.782;2022-08-23T04:48:32;2.40;;;2.30;;
33505;SDS011;19843;51.040;13.782;2022-08-23T04:51:00;2.40;;;2.30;;
33505;SDS011;19843;51.040;13.782;2022-08-23T04:53:28;2.50;;;2.40;;
33505;SDS011;19843;51.040;13.782;2022-08-23T04:55:56;3.20;;;3.10;;
33505;SDS011;19843;51.040;13.782;2022-08-23T04:58:24;3.45;;;3.25;;
33505;SDS011;19843;51.040;13.782;2022-08-23T05:00:52;3.17;;;3.08;;
33505;SDS011;19843;51.040;13.782;2022-08-23T05:03:20;2.50;;;2.40;;
33505;SDS011;19843;51.040;13.782;2022-08-23T05:05:47;1.63;;;1.63;;
33505;SDS011;19843;51.040;13.782;2022-08-23T05:08:14;1.80;;;1.70;;
33505;SDS011;19843;51.040;13.782;2022-08-23T05:10:42;1.80;;;1.80;;
33505;SDS011;19843;51.040;13.782;2022-08-23T05:13:11;1.98;;;1.88;;
33505;SDS011;19843;51.040;13.782;2022-08-23T05:15:38;1.80;;;1.80;;
33505;SDS011;19843;51.040;13.782;2022-08-23T05:18:05;1.90;;;1.80;;
33505;SDS011;19843;51.040;13.782;2022-08-23T05:20:33;1.90;;;1.90;;
33505;SDS011;19843;51.040;13.782;2022-08-23T05:23:00;2.15;;;2.05;;
33505;SDS011;19843;51.040;13.782;2022-08-23T05:25:28;2.17;;;2.08;;
33505;SDS011;19843;51.040;13.782;2022-08-23T05:28:11;2.35;;;2.20;;
33505;SDS011;19843;51.040;13.782;2022-08-23T05:30:39;2.28;;;2.22;;
33505;SDS011;19843;51.040;13.782;2022-08-23T05:33:18;2.95;;;2.85;;
33505;SDS011;19843;51.040;13.782;2022-08-23T05:35:45;3.03;;;2.92;;
33505;SDS011;19843;51.040;13.782;2022-08-23T05:38:13;3.70;;;3.60;;
33505;SDS011;19843;51.040;13.782;2022-08-23T05:40:47;2.97;;;2.88;;
33505;SDS011;19843;51.040;13.782;2022-08-23T05:43:21;2.90;;;2.80;;
33505;SDS011;19843;51.040;13.782;2022-08-23T05:45:57;2.47;;;2.38;;
33505;SDS011;19843;51.040;13.782;2022-08-23T05:48:28;2.95;;;2.85;;
33505;SDS011;19843;51.040;13.782;2022-08-23T05:50:57;3.08;;;2.88;;
33505;SDS011;19843;51.040;13.782;2022-08-23T05:53:24;3.22;;;3.13;;
33505;SDS011;19843;51.040;13.782;2022-08-23T05:55:51;3.80;;;3.60;;
33505;SDS011;19843;51.040;13.782;2022-08-23T05:58:19;3.35;;;3.25;;
33505;SDS011;19843;51.040;13.782;2022-08-23T06:00:48;2.85;;;2.75;;
33505;SDS011;19843;51.040;13.782;2022-08-23T06:03:15;2.58;;;2.47;;
33505;SDS011;19843;51.040;13.782;2022-08-23T06:05:42;2.42;;;2.33;;
33505;SDS011;19843;51.040;13.782;2022-08-23T06:08:10;2.38;;;2.28;;
33505;SDS011;19843;51.040;13.782;2022-08-23T06:10:37;2.45;;;2.35;;
33505;SDS011;19843;51.040;13.782;2022-08-23T06:13:07;2.10;;;2.00;;
33505;SDS011;19843;51.040;13.782;2022-08-23T06:15:35;2.22;;;2.13;;
33505;SDS011;19843;51.040;13.782;2022-08-23T06:18:10;2.33;;;2.23;;
33505;SDS011;19843;51.040;13.782;2022-08-23T06:20:38;2.20;;;2.10;;
33505;SDS011;19843;51.040;13.782;2022-08-23T06:23:07;1.83;;;1.80;;
33505;SDS011;19843;51.040;13.782;2022-08-23T06:25:37;2.38;;;2.28;;
33505;SDS011;19843;51.040;13.782;2022-08-23T06:28:05;2.33;;;2.22;;
33505;SDS011;19843;51.040;13.782;2022-08-23T06:30:36;2.45;;;2.35;;
33505;SDS011;19843;51.040;13.782;2022-08-23T06:33:05;2.25;;;2.15;;
33505;SDS011;19843;51.040;13.782;2022-08-23T06:35:34;2.38;;;2.28;;
33505;SDS011;19843;51.040;13.782;2022-08-23T06:38:05;2.83;;;2.72;;
33505;SDS011;19843;51.040;13.782;2022-08-23T06:40:32;2.65;;;2.55;;
33505;SDS011;19843;51.040;13.782;2022-08-23T06:43:00;2.10;;;2.00;;
33505;SDS011;19843;51.040;13.782;2022-08-23T06:45:29;2.28;;;2.17;;
33505;SDS011;19843;51.040;13.782;2022-08-23T06:48:00;2.20;;;1.98;;
33505;SDS011;19843;51.040;13.782;2022-08-23T06:50:28;2.08;;;1.98;;
33505;SDS011;19843;51.040;13.782;2022-08-23T06:52:59;2.05;;;1.98;;
33505;SDS011;19843;51.040;13.782;2022-08-23T06:55:32;2.38;;;2.28;;
33505;SDS011;19843;51.040;13.782;2022-08-23T06:57:59;2.25;;;2.15;;
33505;SDS011;19843;51.040;13.782;2022-08-23T07:00:28;2.28;;;2.17;;
33505;SDS011;19843;51.040;13.782;2022-08-23T07:02:56;2.22;;;2.20;;
33505;SDS011;19843;51.040;13.782;2022-08-23T07:05:23;2.30;;;2.20;;
33505;SDS011;19843;51.040;13.782;2022-08-23T07:07:51;2.40;;;2.30;;
33505;SDS011;19843;51.040;13.782;2022-08-23T07:10:21;2.17;;;2.08;;
33505;SDS011;19843;51.040;13.782;2022-08-23T07:12:48;2.58;;;2.47;;
33505;SDS011;19843;51.040;13.782;2022-08-23T07:15:16;2.90;;;2.80;;
33505;SDS011;19843;51.040;13.782;2022-08-23T07:17:43;4.70;;;4.40;;
33505;SDS011;19843;51.040;13.782;2022-08-23T07:20:11;5.47;;;5.28;;
33505;SDS011;19843;51.040;13.782;2022-08-23T07:22:38;5.75;;;5.53;;
33505;SDS011;19843;51.040;13.782;2022-08-23T07:25:06;5.53;;;5.22;;
33505;SDS011;19843;51.040;13.782;2022-08-23T07:27:35;6.55;;;6.35;;
33505;SDS011;19843;51.040;13.782;2022-08-23T07:30:05;6.28;;;5.97;;
33505;SDS011;19843;51.040;13.782;2022-08-23T07:32:33;5.72;;;5.47;;
33505;SDS011;19843;51.040;13.782;2022-08-23T07:35:00;2.88;;;2.78;;
33505;SDS011;19843;51.040;13.782;2022-08-23T07:37:28;2.35;;;2.25;;
33505;SDS011;19843;51.040;13.782;2022-08-23T07:39:56;2.10;;;2.00;;
33505;SDS011;19843;51.040;13.782;2022-08-23T07:42:24;1.98;;;1.85;;
33505;SDS011;19843;51.040;13.782;2022-08-23T07:44:52;1.40;;;1.40;;
33505;SDS011;19843;51.040;13.782;2022-08-23T07:47:20;1.75;;;1.65;;
33505;SDS011;19843;51.040;13.782;2022-08-23T07:49:48;1.83;;;1.73;;
33505;SDS011;19843;51.040;13.782;2022-08-23T07:52:16;2.50;;;2.40;;
33505;SDS011;19843;51.040;13.782;2022-08-23T07:54:43;2.40;;;2.30;;
33505;SDS011;19843;51.040;13.782;2022-08-23T07:57:13;2.35;;;2.25;;
33505;SDS011;19843;51.040;13.782;2022-08-23T07:59:41;2.25;;;2.15;;
33505;SDS011;19843;51.040;13.782;2022-08-23T08:02:10;2.20;;;2.10;;
33505;SDS011;19843;51.040;13.782;2022-08-23T08:04:37;2.22;;;2.13;;
33505;SDS011;19843;51.040;13.782;2022-08-23T08:07:05;2.63;;;2.33;;
33505;SDS011;19843;51.040;13.782;2022-08-23T08:09:46;2.28;;;2.17;;
33505;SDS011;19843;51.040;13.782;2022-08-23T08:12:13;2.53;;;2.42;;
33505;SDS011;19843;51.040;13.782;2022-08-23T08:14:40;2.80;;;2.50;;
33505;SDS011;19843;51.040;13.782;2022-08-23T08:17:08;2.95;;;2.85;;
33505;SDS011;19843;51.040;13.782;2022-08-23T08:19:37;2.95;;;2.85;;
33505;SDS011;19843;51.040;13.782;2022-08-23T08:22:05;3.13;;;3.03;;
33505;SDS011;19843;51.040;13.782;2022-08-23T08:24:32;3.35;;;3.25;;
33505;SDS011;19843;51.040;13.782;2022-08-23T08:27:00;3.40;;;3.30;;
33505;SDS011;19843;51.040;13.782;2022-08-23T08:29:27;4.95;;;4.75;;
33505;SDS011;19843;51.040;13.782;2022-08-23T08:31:55;5.63;;;5.43;;
33505;SDS011;19843;51.040;13.782;2022-08-23T08:34:22;6.68;;;6.47;;
33505;SDS011;19843;51.040;13.782;2022-08-23T08:36:52;6.85;;;6.55;;
33505;SDS011;19843;51.040;13.782;2022-08-23T08:39:24;7.30;;;7.03;;
33505;SDS011;19843;51.040;13.782;2022-08-23T08:41:59;8.68;;;8.38;;
33505;SDS011;19843;51.040;13.782;2022-08-23T08:44:37;8.23;;;7.93;;
33505;SDS011;19843;51.040;13.782;2022-08-23T08:47:12;9.00;;;8.50;;
33505;SDS011;19843;51.040;13.782;2022-08-23T08:49:44;11.13;;;10.73;;
33505;SDS011;19843;51.040;13.782;2022-08-23T08:52:19;9.93;;;9.55;;
33505;SDS011;19843;51.040;13.782;2022-08-23T08:54:51;8.02;;;7.72;;
33505;SDS011;19843;51.040;13.782;2022-08-23T08:57:26;8.68;;;8.32;;
33505;SDS011;19843;51.040;13.782;2022-08-23T08:59:59;12.32;;;11.85;;
33505;SDS011;19843;51.040;13.782;2022-08-23T09:02:31;10.77;;;10.38;;
33505;SDS011;19843;51.040;13.782;2022-08-23T09:05:01;13.00;;;12.40;;
33505;SDS011;19843;51.040;13.782;2022-08-23T09:07:35;11.95;;;11.50;;
33505;SDS011;19843;51.040;13.782;2022-08-23T09:13:16;10.98;;;10.50;;
33505;SDS011;19843;51.040;13.782;2022-08-23T09:15:57;10.32;;;9.93;;
33505;SDS011;19843;51.040;13.782;2022-08-23T09:18:37;7.75;;;7.45;;
33505;SDS011;19843;51.040;13.782;2022-08-23T09:21:05;6.32;;;6.10;;
33505;SDS011;19843;51.040;13.782;2022-08-23T09:23:37;3.15;;;3.05;;
33505;SDS011;19843;51.040;13.782;2022-08-23T09:26:15;3.70;;;3.60;;
33505;SDS011;19843;51.040;13.782;2022-08-23T09:28:45;4.97;;;4.78;;
33505;SDS011;19843;51.040;13.782;2022-08-23T09:31:13;5.07;;;4.88;;
33505;SDS011;19843;51.040;13.782;2022-08-23T09:34:04;5.95;;;5.75;;
33505;SDS011;19843;51.040;13.782;2022-08-23T09:36:33;8.40;;;8.10;;
33505;SDS011;19843;51.040;13.782;2022-08-23T09:39:05;8.93;;;8.63;;
33505;SDS011;19843;51.040;13.782;2022-08-23T09:41:34;9.40;;;9.10;;
33505;SDS011;19843;51.040;13.782;2022-08-23T09:44:04;9.02;;;8.73;;
33505;SDS011;19843;51.040;13.782;2022-08-23T09:46:35;8.05;;;7.75;;
33505;SDS011;19843;51.040;13.782;2022-08-23T09:49:23;8.60;;;8.30;;
33505;SDS011;19843;51.040;13.782;2022-08-23T09:51:53;7.50;;;7.20;;
33505;SDS011;19843;51.040;13.782;2022-08-23T09:54:26;7.93;;;7.63;;
33505;SDS011;19843;51.040;13.782;2022-08-23T09:56:57;8.35;;;8.05;;
33505;SDS011;19843;51.040;13.782;2022-08-23T09:59:31;7.45;;;7.07;;
33505;SDS011;19843;51.040;13.782;2022-08-23T10:02:08;6.55;;;6.22;;
33505;SDS011;19843;51.040;13.782;2022-08-23T10:04:46;5.90;;;5.70;;
33505;SDS011;19843;51.040;13.782;2022-08-23T10:07:23;5.35;;;5.15;;
33505;SDS011;19843;51.040;13.782;2022-08-23T10:10:00;5.75;;;5.55;;
33505;SDS011;19843;51.040;13.782;2022-08-23T10:12:41;5.60;;;5.40;;
33505;SDS011;19843;51.040;13.782;2022-08-23T10:15:08;6.18;;;5.90;;
33505;SDS011;19843;51.040;13.782;2022-08-23T10:17:37;6.90;;;6.70;;
33505;SDS011;19843;51.040;13.782;2022-08-23T10:20:14;7.28;;;6.97;;
33505;SDS011;19843;51.040;13.782;2022-08-23T10:22:49;6.78;;;6.57;;
33505;SDS011;19843;51.040;13.782;2022-08-23T10:25:29;7.53;;;7.22;;
33505;SDS011;19843;51.040;13.782;2022-08-23T10:28:03;6.45;;;6.25;;
33505;SDS011;19843;51.040;13.782;2022-08-23T10:31:01;4.82;;;4.63;;
33505;SDS011;19843;51.040;13.782;2022-08-23T10:33:36;4.25;;;4.05;;
33505;SDS011;19843;51.040;13.782;2022-08-23T10:36:13;5.60;;;5.40;;
33505;SDS011;19843;51.040;13.782;2022-08-23T10:38:45;5.93;;;5.72;;
33505;SDS011;19843;51.040;13.782;2022-08-23T10:41:19;5.20;;;5.00;;
33505;SDS011;19843;51.040;13.782;2022-08-23T10:43:57;3.33;;;3.22;;
33505;SDS011;19843;51.040;13.782;2022-08-23T10:46:35;3.22;;;3.13;;
33505;SDS011;19843;51.040;13.782;2022-08-23T10:49:07;3.45;;;3.35;;
33505;SDS011;19843;51.040;13.782;2022-08-23T10:51:39;3.83;;;3.72;;
33505;SDS011;19843;51.040;13.782;2022-08-23T10:54:11;3.65;;;3.47;;
33505;SDS011;19843;51.040;13.782;2022-08-23T10:59:17;3.40;;;3.30;;
33505;SDS011;19843;51.040;13.782;2022-08-23T11:01:49;3.70;;;3.60;;
33505;SDS011;19843;51.040;13.782;2022-08-23T11:04:23;3.47;;;3.38;;
33505;SDS011;19843;51.040;13.782;2022-08-23T11:06:57;3.90;;;3.80;;
33505;SDS011;19843;51.040;13.782;2022-08-23T11:09:30;2.55;;;2.45;;
33505;SDS011;19843;51.040;13.782;2022-08-23T11:12:23;1.85;;;1.75;;
33505;SDS011;19843;51.040;13.782;2022-08-23T11:14:58;3.17;;;3.03;;
33505;SDS011;19843;51.040;13.782;2022-08-23T11:17:41;4.40;;;4.28;;
33505;SDS011;19843;51.040;13.782;2022-08-23T11:29:37;3.53;;;3.42;;
33505;SDS011;19843;51.040;13.782;2022-08-23T11:32:18;3.67;;;3.58;;
33505;SDS011;19843;51.040;13.782;2022-08-23T11:34:57;4.20;;;4.10;;
33505;SDS011;19843;51.040;13.782;2022-08-23T11:37:47;4.90;;;4.70;;
33505;SDS011;19843;51.040;13.782;2022-08-23T11:43:07;1.90;;;1.80;;
33505;SDS011;19843;51.040;13.782;2022-08-23T11:45:41;1.48;;;1.48;;
33505;SDS011;19843;51.040;13.782;2022-08-23T11:48:13;1.52;;;1.52;;
33505;SDS011;19843;51.040;13.782;2022-08-23T11:50:47;2.10;;;2.00;;
33505;SDS011;19843;51.040;13.782;2022-08-23T11:53:35;1.92;;;1.83;;
33505;SDS011;19843;51.040;13.782;2022-08-23T11:59:15;1.92;;;1.85;;
33505;SDS011;19843;51.040;13.782;2022-08-23T12:04:59;1.70;;;1.70;;
33505;SDS011;19843;51.040;13.782;2022-08-23T12:07:42;1.83;;;1.80;;
33505;SDS011;19843;51.040;13.782;2022-08-23T12:10:14;2.00;;;2.00;;
33505;SDS011;19843;51.040;13.782;2022-08-23T12:12:42;2.35;;;2.25;;
33505;SDS011;19843;51.040;13.782;2022-08-23T12:15:12;2.40;;;2.33;;
33505;SDS011;19843;51.040;13.782;2022-08-23T12:18:08;2.58;;;2.47;;
33505;SDS011;19843;51.040;13.782;2022-08-23T12:20:40;1.75;;;1.70;;
33505;SDS011;19843;51.040;13.782;2022-08-23T12:23:16;1.50;;;1.50;;
33505;SDS011;19843;51.040;13.782;2022-08-23T12:25:45;1.70;;;1.70;;
33505;SDS011;19843;51.040;13.782;2022-08-23T12:28:28;2.10;;;2.00;;
33505;SDS011;19843;51.040;13.782;2022-08-23T12:31:05;1.50;;;1.40;;
33505;SDS011;19843;51.040;13.782;2022-08-23T12:33:47;1.40;;;1.40;;
33505;SDS011;19843;51.040;13.782;2022-08-23T12:36:27;1.52;;;1.52;;
33505;SDS011;19843;51.040;13.782;2022-08-23T12:39:03;1.80;;;1.73;;
33505;SDS011;19843;51.040;13.782;2022-08-23T12:41:34;1.92;;;1.83;;
33505;SDS011;19843;51.040;13.782;2022-08-23T12:44:17;3.03;;;2.92;;
33505;SDS011;19843;51.040;13.782;2022-08-23T12:46:47;3.88;;;3.78;;
33505;SDS011;19843;51.040;13.782;2022-08-23T12:49:28;5.32;;;5.13;;
33505;SDS011;19843;51.040;13.782;2022-08-23T12:51:59;4.43;;;4.32;;
33505;SDS011;19843;51.040;13.782;2022-08-23T12:54:33;4.18;;;3.97;;
33505;SDS011;19843;51.040;13.782;2022-08-23T12:57:06;3.53;;;3.42;;
33505;SDS011;19843;51.040;13.782;2022-08-23T12:59:38;3.35;;;3.25;;
33505;SDS011;19843;51.040;13.782;2022-08-23T13:02:09;3.00;;;2.90;;
33505;SDS011;19843;51.040;13.782;2022-08-23T13:04:42;2.40;;;2.30;;
33505;SDS011;19843;51.040;13.782;2022-08-23T13:07:10;2.05;;;1.95;;
33505;SDS011;19843;51.040;13.782;2022-08-23T13:09:43;1.95;;;1.85;;
33505;SDS011;19843;51.040;13.782;2022-08-23T13:12:20;1.98;;;1.90;;
33505;SDS011;19843;51.040;13.782;2022-08-23T13:14:49;1.77;;;1.77;;
33505;SDS011;19843;51.040;13.782;2022-08-23T13:17:20;2.13;;;2.08;;
33505;SDS011;19843;51.040;13.782;2022-08-23T13:20:11;2.63;;;2.53;;
33505;SDS011;19843;51.040;13.782;2022-08-23T13:22:58;2.33;;;2.22;;
33505;SDS011;19843;51.040;13.782;2022-08-23T13:25:30;1.80;;;1.70;;
33505;SDS011;19843;51.040;13.782;2022-08-23T13:28:00;1.90;;;1.90;;
33505;SDS011;19843;51.040;13.782;2022-08-23T13:30:31;1.80;;;1.70;;
33505;SDS011;19843;51.040;13.782;2022-08-23T13:33:17;1.85;;;1.85;;
33505;SDS011;19843;51.040;13.782;2022-08-23T13:35:48;2.42;;;2.33;;
33505;SDS011;19843;51.040;13.782;2022-08-23T13:38:20;2.92;;;2.83;;
33505;SDS011;19843;51.040;13.782;2022-08-23T13:40:58;3.40;;;3.30;;
33505;SDS011;19843;51.040;13.782;2022-08-23T13:43:29;2.90;;;2.80;;
33505;SDS011;19843;51.040;13.782;2022-08-23T13:46:08;2.78;;;2.67;;
33505;SDS011;19843;51.040;13.782;2022-08-23T13:48:42;2.25;;;2.15;;
33505;SDS011;19843;51.040;13.782;2022-08-23T13:51:17;2.22;;;2.13;;
33505;SDS011;19843;51.040;13.782;2022-08-23T13:53:50;2.70;;;2.60;;
33505;SDS011;19843;51.040;13.782;2022-08-23T13:56:17;3.78;;;3.58;;
33505;SDS011;19843;51.040;13.782;2022-08-23T13:58:51;3.53;;;3.42;;
33505;SDS011;19843;51.040;13.782;2022-08-23T14:01:21;3.33;;;3.22;;
33505;SDS011;19843;51.040;13.782;2022-08-23T14:03:50;3.25;;;3.15;;
33505;SDS011;19843;51.040;13.782;2022-08-23T14:06:19;2.50;;;2.30;;
33505;SDS011;19843;51.040;13.782;2022-08-23T14:08:46;1.90;;;1.90;;
33505;SDS011;19843;51.040;13.782;2022-08-23T14:11:14;1.88;;;1.85;;
33505;SDS011;19843;51.040;13.782;2022-08-23T14:13:42;2.28;;;2.17;;
33505;SDS011;19843;51.040;13.782;2022-08-23T14:16:13;3.13;;;3.03;;
33505;SDS011;19843;51.040;13.782;2022-08-23T14:19:01;2.53;;;2.42;;
33505;SDS011;19843;51.040;13.782;2022-08-23T14:21:50;1.98;;;1.98;;
33505;SDS011;19843;51.040;13.782;2022-08-23T14:24:20;2.25;;;2.17;;
33505;SDS011;19843;51.040;13.782;2022-08-23T14:26:48;2.75;;;2.65;;
33505;SDS011;19843;51.040;13.782;2022-08-23T14:29:18;4.03;;;3.72;;
33505;SDS011;19843;51.040;13.782;2022-08-23T14:31:47;4.03;;;3.92;;
33505;SDS011;19843;51.040;13.782;2022-08-23T14:34:15;3.63;;;3.53;;
33505;SDS011;19843;51.040;13.782;2022-08-23T14:36:43;4.07;;;3.88;;
33505;SDS011;19843;51.040;13.782;2022-08-23T14:39:31;4.60;;;4.40;;
33505;SDS011;19843;51.040;13.782;2022-08-23T14:41:59;4.35;;;4.15;;
33505;SDS011;19843;51.040;13.782;2022-08-23T14:44:26;3.90;;;3.80;;
33505;SDS011;19843;51.040;13.782;2022-08-23T14:47:01;4.22;;;4.13;;
33505;SDS011;19843;51.040;13.782;2022-08-23T14:49:29;4.25;;;4.07;;
33505;SDS011;19843;51.040;13.782;2022-08-23T14:51:56;3.65;;;3.55;;
33505;SDS011;19843;51.040;13.782;2022-08-23T14:54:24;3.90;;;3.80;;
33505;SDS011;19843;51.040;13.782;2022-08-23T14:56:53;5.50;;;5.30;;
33505;SDS011;19843;51.040;13.782;2022-08-23T14:59:21;4.20;;;4.10;;
33505;SDS011;19843;51.040;13.782;2022-08-23T15:01:48;5.38;;;5.18;;
33505;SDS011;19843;51.040;13.782;2022-08-23T15:04:19;9.10;;;8.80;;
33505;SDS011;19843;51.040;13.782;2022-08-23T15:06:49;9.18;;;8.88;;
33505;SDS011;19843;51.040;13.782;2022-08-23T15:09:37;10.20;;;9.80;;
33505;SDS011;19843;51.040;13.782;2022-08-23T15:12:06;3.65;;;3.55;;
33505;SDS011;19843;51.040;13.782;2022-08-23T15:14:57;6.13;;;5.93;;
33505;SDS011;19843;51.040;13.782;2022-08-23T15:17:25;7.47;;;7.22;;
33505;SDS011;19843;51.040;13.782;2022-08-23T15:19:56;9.18;;;8.88;;
33505;SDS011;19843;51.040;13.782;2022-08-23T15:22:24;8.25;;;7.95;;
33505;SDS011;19843;51.040;13.782;2022-08-23T15:24:52;10.60;;;10.23;;
33505;SDS011;19843;51.040;13.782;2022-08-23T15:27:20;12.48;;;12.02;;